Terminal Aerodrome Forecast
Issued by NWS

Home | Current Version | Previous Version | Text Only | Print | Product List | Glossary On
Versions: 1 2 3 4 5 6 7 8 9 10 11 12 13 14 15 16 17
000
FTUS44 KLZK 270529
TAFADF
TAF
KADF 270529Z 2706/2806 05005KT P6SM -RA VCTS BKN040CB OVC100
     FM270900 06005KT P6SM -RA VCTS BKN025CB OVC040
     FM271100 08005KT 5SM -RA VCTS BKN015CB OVC040
      TEMPO 2711/2714 2SM -SHRA BR OVC008
     FM271400 09005KT 6SM BR VCSH OVC025
     FM271800 10006KT P6SM VCSH SCT030 BKN050 OVC100=

USA.gov is the U.S. government's official web portal to all federal, state and local government web resources and services.